Wetterdaten: Woche 01.11.10 - 07.11.10 (KW44)
Datum Zeit Temp. A. Feuchte A. Luftdruck Regen Wind Richtung Taupunkt Windchill Windben
01.11.2010 00:00 9,9 C 75 % 1010,6 hPa 0,0 l/m 0,8 km/h O 5,7 C 9,9 C 2,4 km/h
01.11.2010 01:00 9,8 C 74 % 1010,4 hPa 0,0 l/m 1,0 km/h S 5,4 C 9,8 C 8,0 km/h
01.11.2010 02:00 9,3 C 75 % 1010,2 hPa 0,0 l/m 0,5 km/h N 5,2 C 9,3 C 4,8 km/h
01.11.2010 03:00 9,3 C 77 % 1009,9 hPa 0,0 l/m 0,4 km/h N 5,3 C 9,3 C 4,0 km/h
01.11.2010 04:00 9,4 C 77 % 1009,8 hPa 0,0 l/m 0,4 km/h N 5,5 C 9,4 C 3,6 km/h
01.11.2010 05:00 9,1 C 79 % 1009,7 hPa 0,0 l/m 0,3 km/h N 5,6 C 9,1 C 2,8 km/h
01.11.2010 06:00 9,4 C 80 % 1009,2 hPa 0,0 l/m 0,3 km/h N 6,1 C 9,4 C 2,8 km/h
01.11.2010 07:00 10,4 C 79 % 1009,2 hPa 0,0 l/m 0,6 km/h N 6,8 C 10,4 C 4,4 km/h
01.11.2010 08:00 10,9 C 79 % 1009,7 hPa 0,0 l/m 0,4 km/h N 7,4 C 10,9 C 2,4 km/h
01.11.2010 09:00 12,1 C 78 % 1009,8 hPa 0,0 l/m 0,4 km/h N 8,3 C 12,1 C 5,2 km/h
01.11.2010 10:00 13,7 C 75 % 1009,8 hPa 0,0 l/m 0,7 km/h S-SW 9,2 C 13,7 C 5,6 km/h
01.11.2010 11:00 14,8 C 71 % 1009,5 hPa 0,0 l/m 1,1 km/h O 9,6 C 14,8 C 5,2 km/h
01.11.2010 12:00 16,0 C 69 % 1008,8 hPa 0,0 l/m 1,6 km/h O 10,4 C 16,0 C 7,7 km/h
01.11.2010 13:00 18,5 C 60 % 1008,3 hPa 0,0 l/m 3,8 km/h O-SO 10,6 C 18,5 C 17,7 km/h
01.11.2010 14:00 19,4 C 58 % 1008,1 hPa 0,0 l/m 5,8 km/h S-SO 10,9 C 19,3 C 18,5 km/h
01.11.2010 15:00 18,2 C 62 % 1008,5 hPa 0,0 l/m 2,7 km/h SO 10,7 C 18,2 C 14,1 km/h
01.11.2010 16:00 16,8 C 66 % 1008,9 hPa 0,0 l/m 1,4 km/h S 10,5 C 16,8 C 10,5 km/h
01.11.2010 17:00 15,8 C 69 % 1009,3 hPa 0,0 l/m 1,7 km/h S 10,2 C 15,8 C 9,3 km/h
01.11.2010 18:00 15,1 C 71 % 1009,8 hPa 0,0 l/m 0,7 km/h N 9,8 C 15,1 C 7,7 km/h
01.11.2010 19:00 14,8 C 71 % 1010,3 hPa 0,0 l/m 1,4 km/h S-SO 9,5 C 14,8 C 6,8 km/h
01.11.2010 20:00 14,1 C 73 % 1010,6 hPa 0,0 l/m 1,3 km/h S 9,3 C 14,1 C 6,8 km/h
01.11.2010 21:00 13,6 C 73 % 1010,5 hPa 0,0 l/m 0,1 km/h N 8,9 C 13,6 C 1,6 km/h
01.11.2010 22:00 12,2 C 75 % 1010,6 hPa 0,0 l/m 0,1 km/h N 7,8 C 12,2 C 2,4 km/h
01.11.2010 23:00 10,0 C 79 % 1010,9 hPa 0,0 l/m 0,1 km/h N 6,5 C 10,0 C 1,2 km/h
02.11.2010 00:00 9,0 C 82 % 1011,3 hPa 0,0 l/m 0,0 km/h N 6,1 C 9,0 C 0,4 km/h
02.11.2010 01:00 8,1 C 83 % 1011,2 hPa 0,0 l/m 0,0 km/h N 5,4 C 8,1 C 0,8 km/h
02.11.2010 02:00 7,6 C 84 % 1011,3 hPa 0,0 l/m 0,0 km/h N 5,0 C 7,6 C 0,8 km/h
02.11.2010 03:00 7,0 C 84 % 1011,3 hPa 0,0 l/m 0,0 km/h N 4,5 C 7,0 C 0,0 km/h
02.11.2010 04:00 7,3 C 84 % 1011,6 hPa 0,0 l/m 0,2 km/h N 4,8 C 7,3 C 1,6 km/h
02.11.2010 05:00 7,2 C 85 % 1012,0 hPa 0,0 l/m 0,0 km/h N 4,8 C 7,2 C 0,4 km/h
02.11.2010 06:00 7,1 C 85 % 1012,6 hPa 0,0 l/m 0,0 km/h N 4,6 C 7,1 C 0,4 km/h
02.11.2010 07:00 6,8 C 85 % 1013,4 hPa 0,0 l/m 0,0 km/h N 4,4 C 6,8 C 0,0 km/h
02.11.2010 08:00 7,8 C 84 % 1014,0 hPa 0,0 l/m 0,1 km/h N 5,2 C 7,8 C 1,6 km/h
02.11.2010 09:00 9,3 C 84 % 1014,4 hPa 0,0 l/m 0,7 km/h N-NW 6,7 C 9,3 C 3,6 km/h
02.11.2010 10:00 10,5 C 84 % 1014,7 hPa 0,0 l/m 1,1 km/h NO 7,9 C 10,5 C 4,4 km/h
02.11.2010 11:00 11,6 C 83 % 1014,7 hPa 0,0 l/m 0,3 km/h N 8,7 C 11,6 C 2,8 km/h
02.11.2010 12:00 12,8 C 79 % 1014,4 hPa 0,0 l/m 0,5 km/h N 9,2 C 12,8 C 3,2 km/h
02.11.2010 13:00 13,6 C 77 % 1014,1 hPa 0,0 l/m 0,2 km/h N 9,5 C 13,6 C 2,0 km/h
02.11.2010 14:00 13,8 C 76 % 1014,3 hPa 0,0 l/m 0,0 km/h N 9,6 C 13,8 C 0,4 km/h
02.11.2010 15:00 13,4 C 77 % 1014,9 hPa 0,0 l/m 0,0 km/h N 9,5 C 13,4 C 0,0 km/h
02.11.2010 16:00 12,5 C 77 % 1015,3 hPa 0,0 l/m 0,0 km/h N 8,5 C 12,5 C 0,0 km/h
02.11.2010 17:00 10,7 C 79 % 1015,9 hPa 0,0 l/m 0,0 km/h N 7,3 C 10,7 C 0,0 km/h
02.11.2010 18:00 10,3 C 83 % 1016,6 hPa 0,0 l/m 0,0 km/h N 7,4 C 10,3 C 0,4 km/h
02.11.2010 19:00 10,2 C 84 % 1017,1 hPa 0,0 l/m 0,0 km/h N 7,6 C 10,2 C 1,6 km/h
02.11.2010 20:00 9,9 C 84 % 1017,3 hPa 0,0 l/m 0,0 km/h N 7,3 C 9,9 C 0,8 km/h
02.11.2010 21:00 9,4 C 84 % 1017,2 hPa 0,0 l/m 0,0 km/h N 6,8 C 9,4 C 1,2 km/h
02.11.2010 22:00 10,1 C 84 % 1016,9 hPa 0,0 l/m 0,5 km/h N 7,5 C 10,1 C 5,2 km/h
02.11.2010 23:00 10,8 C 83 % 1017,1 hPa 0,0 l/m 0,7 km/h S-SW 8,1 C 10,8 C 6,8 km/h
03.11.2010 00:00 11,2 C 80 % 1016,9 hPa 0,0 l/m 1,6 km/h W-SW 7,8 C 11,2 C 10,5 km/h
03.11.2010 01:00 11,3 C 78 % 1016,9 hPa 0,0 l/m 0,6 km/h N 7,5 C 11,3 C 4,8 km/h
03.11.2010 02:00 11,2 C 77 % 1016,9 hPa 0,0 l/m 1,6 km/h W-SW 7,3 C 11,2 C 8,1 km/h
03.11.2010 03:00 10,9 C 77 % 1017,0 hPa 0,0 l/m 0,3 km/h N 7,0 C 10,9 C 4,0 km/h
03.11.2010 04:00 11,1 C 77 % 1017,3 hPa 0,0 l/m 1,2 km/h W-SW 7,3 C 11,1 C 5,2 km/h
03.11.2010 05:00 11,0 C 77 % 1017,6 hPa 0,0 l/m 2,5 km/h W-NW 7,1 C 11,0 C 11,7 km/h
03.11.2010 06:00 11,0 C 76 % 1017,9 hPa 0,0 l/m 2,7 km/h W-SW 7,0 C 11,0 C 12,9 km/h
03.11.2010 07:00 11,3 C 74 % 1018,0 hPa 0,0 l/m 1,8 km/h W-SW 6,7 C 11,3 C 10,4 km/h
03.11.2010 08:00 11,8 C 73 % 1018,6 hPa 0,0 l/m 0,4 km/h N 7,1 C 11,8 C 5,2 km/h
03.11.2010 09:00 11,9 C 73 % 1018,8 hPa 0,0 l/m 0,5 km/h N 7,1 C 11,9 C 5,6 km/h
03.11.2010 10:00 12,3 C 73 % 1018,9 hPa 0,0 l/m 0,8 km/h W-SW 7,5 C 12,3 C 5,6 km/h
03.11.2010 11:00 11,6 C 78 % 1018,9 hPa 0,0 l/m 0,6 km/h N 8,0 C 11,6 C 5,2 km/h
03.11.2010 12:00 11,3 C 81 % 1018,4 hPa 0,0 l/m 0,1 km/h N 8,1 C 11,3 C 1,6 km/h
03.11.2010 13:00 11,5 C 81 % 1018,1 hPa 0,0 l/m 0,3 km/h S 8,4 C 11,5 C 4,4 km/h
03.11.2010 14:00 11,8 C 82 % 1017,8 hPa 0,0 l/m 1,0 km/h N 8,7 C 11,8 C 6,8 km/h
03.11.2010 15:00 12,2 C 82 % 1018,2 hPa 0,0 l/m 0,9 km/h S 9,1 C 12,2 C 6,0 km/h
03.11.2010 16:00 12,1 C 82 % 1018,6 hPa 0,0 l/m 1,2 km/h S-SW 9,1 C 12,1 C 6,4 km/h
03.11.2010 17:00 11,4 C 82 % 1019,3 hPa 0,0 l/m 1,7 km/h S 8,5 C 11,4 C 6,4 km/h
03.11.2010 18:00 10,9 C 82 % 1019,8 hPa 0,0 l/m 0,0 km/h N 7,9 C 10,9 C 0,0 km/h
03.11.2010 19:00 9,4 C 82 % 1019,9 hPa 0,0 l/m 0,0 km/h N 6,4 C 9,4 C 0,8 km/h
03.11.2010 20:00 8,4 C 84 % 1020,3 hPa 0,0 l/m 0,0 km/h N 5,8 C 8,4 C 0,8 km/h
03.11.2010 21:00 8,4 C 84 % 1020,8 hPa 0,0 l/m 0,0 km/h N 5,9 C 8,4 C 1,2 km/h
03.11.2010 22:00 7,5 C 84 % 1021,2 hPa 0,0 l/m 0,1 km/h N 5,0 C 7,5 C 1,2 km/h
03.11.2010 23:00 6,8 C 85 % 1021,7 hPa 0,0 l/m 0,1 km/h N 4,3 C 6,8 C 2,8 km/h
04.11.2010 00:00 7,0 C 85 % 1021,8 hPa 0,0 l/m 0,0 km/h N 4,6 C 7,0 C 1,2 km/h
04.11.2010 01:00 9,1 C 84 % 1022,7 hPa 0,0 l/m 2,7 km/h S-SW 6,5 C 9,1 C 12,1 km/h
04.11.2010 02:00 12,7 C 79 % 1022,5 hPa 0,0 l/m 2,5 km/h SW 9,1 C 12,7 C 12,9 km/h
04.11.2010 03:00 13,6 C 72 % 1022,8 hPa 0,0 l/m 1,6 km/h SW 8,7 C 13,6 C 7,7 km/h
04.11.2010 04:00 12,7 C 74 % 1023,2 hPa 0,0 l/m 0,2 km/h N 8,2 C 12,7 C 3,2 km/h
04.11.2010 05:00 11,9 C 78 % 1023,8 hPa 0,0 l/m 0,4 km/h N 8,1 C 11,9 C 4,0 km/h
04.11.2010 06:00 11,4 C 79 % 1024,2 hPa 0,0 l/m 0,3 km/h N 7,9 C 11,4 C 5,2 km/h
04.11.2010 07:00 10,7 C 79 % 1024,4 hPa 0,0 l/m 0,0 km/h N 7,2 C 10,7 C 2,0 km/h
04.11.2010 08:00 11,6 C 78 % 1024,8 hPa 0,0 l/m 2,4 km/h S 8,0 C 11,6 C 9,6 km/h
04.11.2010 09:00 14,8 C 69 % 1024,8 hPa 0,0 l/m 2,9 km/h SW 9,1 C 14,7 C 12,9 km/h
04.11.2010 10:00 18,7 C 56 % 1024,7 hPa 0,0 l/m 9,0 km/h S-SW 9,7 C 17,6 C 25,0 km/h
04.11.2010 11:00 20,0 C 51 % 1024,0 hPa 0,3 l/m 9,1 km/h W-SW 9,5 C 19,0 C 23,8 km/h
04.11.2010 12:00 20,8 C 49 % 1023,6 hPa 0,0 l/m 9,1 km/h W-SW 9,6 C 19,9 C 25,3 km/h
04.11.2010 13:00 20,6 C 49 % 1023,3 hPa 0,0 l/m 4,7 km/h S-SW 9,5 C 20,6 C 14,9 km/h
04.11.2010 14:00 20,0 C 51 % 1023,1 hPa 0,0 l/m 5,6 km/h W 9,5 C 20,0 C 18,5 km/h
04.11.2010 15:00 19,4 C 52 % 1023,0 hPa 0,0 l/m 5,7 km/h W-SW 9,3 C 19,4 C 18,9 km/h
04.11.2010 16:00 18,6 C 55 % 1023,3 hPa 0,0 l/m 4,3 km/h W 9,4 C 18,6 C 15,3 km/h
04.11.2010 17:00 17,9 C 58 % 1024,2 hPa 0,0 l/m 3,0 km/h SW 9,6 C 17,9 C 13,7 km/h
04.11.2010 18:00 16,9 C 61 % 1024,8 hPa 0,0 l/m 0,3 km/h N 9,3 C 16,9 C 2,8 km/h
04.11.2010 19:00 14,0 C 68 % 1024,9 hPa 0,0 l/m 0,0 km/h N 8,3 C 14,0 C 0,8 km/h
04.11.2010 20:00 12,6 C 76 % 1025,1 hPa 0,0 l/m 0,2 km/h SW 8,5 C 12,6 C 5,2 km/h
04.11.2010 21:00 13,9 C 75 % 1024,8 hPa 0,0 l/m 1,1 km/h SW 9,5 C 13,9 C 6,8 km/h
04.11.2010 22:00 14,9 C 70 % 1024,6 hPa 0,0 l/m 1,1 km/h SW 9,4 C 14,9 C 6,0 km/h
04.11.2010 23:00 14,0 C 70 % 1024,4 hPa 0,0 l/m 0,3 km/h N 8,6 C 14,0 C 3,2 km/h
05.11.2010 00:00 12,2 C 76 % 1024,2 hPa 0,0 l/m 0,3 km/h N 8,0 C 12,2 C 4,0 km/h
05.11.2010 01:00 11,1 C 78 % 1024,2 hPa 0,0 l/m 0,1 km/h N 7,5 C 11,1 C 2,0 km/h
05.11.2010 02:00 9,8 C 81 % 1023,9 hPa 0,0 l/m 0,2 km/h N 6,6 C 9,8 C 2,4 km/h
05.11.2010 03:00 9,4 C 83 % 1023,5 hPa 0,0 l/m 0,0 km/h N 6,6 C 9,4 C 1,6 km/h
05.11.2010 04:00 9,6 C 84 % 1023,4 hPa 0,0 l/m 0,4 km/h S-SW 7,0 C 9,6 C 4,4 km/h
05.11.2010 05:00 12,4 C 82 % 1023,0 hPa 0,0 l/m 2,3 km/h SW 9,5 C 12,4 C 11,3 km/h
05.11.2010 06:00 15,3 C 71 % 1022,4 hPa 0,0 l/m 4,0 km/h S-SO 10,1 C 15,3 C 16,9 km/h
05.11.2010 07:00 14,4 C 70 % 1022,7 hPa 0,0 l/m 0,8 km/h SW 9,0 C 14,4 C 4,8 km/h
05.11.2010 08:00 15,9 C 69 % 1022,6 hPa 0,0 l/m 5,3 km/h S-SW 10,3 C 15,9 C 17,7 km/h
05.11.2010 09:00 18,3 C 62 % 1022,2 hPa 0,0 l/m 10,9 km/h W-NW 10,8 C 16,5 C 29,4 km/h
05.11.2010 10:00 18,8 C 59 % 1022,0 hPa 0,0 l/m 13,8 km/h W 10,6 C 16,2 C 37,4 km/h
05.11.2010 11:00 19,3 C 56 % 1021,9 hPa 0,0 l/m 15,4 km/h W-SW 10,2 C 16,3 C 38,6 km/h
05.11.2010 12:00 19,5 C 55 % 1021,6 hPa 0,0 l/m 10,0 km/h W 10,1 C 18,1 C 32,6 km/h
05.11.2010 13:00 20,9 C 49 % 1021,1 hPa 0,0 l/m 9,8 km/h W 9,8 C 19,7 C 25,8 km/h
05.11.2010 14:00 20,8 C 47 % 1020,9 hPa 0,0 l/m 8,8 km/h W-SW 9,1 C 19,9 C 23,3 km/h
05.11.2010 15:00 20,0 C 50 % 1021,0 hPa 0,0 l/m 4,9 km/h NW 9,1 C 20,0 C 11,3 km/h
05.11.2010 16:00 18,9 C 56 % 1021,2 hPa 0,0 l/m 3,8 km/h W-NW 9,8 C 18,9 C 14,1 km/h
05.11.2010 17:00 17,6 C 61 % 1021,2 hPa 0,0 l/m 6,1 km/h W-SW 10,0 C 17,4 C 19,3 km/h
05.11.2010 18:00 17,1 C 64 % 1021,3 hPa 0,0 l/m 5,5 km/h W 10,2 C 17,0 C 18,1 km/h
05.11.2010 19:00 16,7 C 66 % 1021,8 hPa 0,0 l/m 4,8 km/h W-SW 10,3 C 16,7 C 16,9 km/h
05.11.2010 20:00 16,3 C 69 % 1021,9 hPa 0,0 l/m 6,1 km/h W-SW 10,5 C 16,2 C 20,5 km/h
05.11.2010 21:00 16,0 C 68 % 1022,0 hPa 0,0 l/m 3,2 km/h W-SW 10,1 C 16,0 C 12,9 km/h
05.11.2010 22:00 15,9 C 66 % 1021,6 hPa 0,0 l/m 5,2 km/h NW 9,5 C 15,9 C 19,3 km/h
05.11.2010 23:00 15,8 C 67 % 1020,9 hPa 0,0 l/m 4,6 km/h W 9,7 C 15,8 C 18,5 km/h
06.11.2010 00:00 15,4 C 69 % 1020,5 hPa 0,0 l/m 4,0 km/h SW 9,8 C 15,4 C 14,9 km/h
06.11.2010 01:00 14,9 C 70 % 1019,7 hPa 0,0 l/m 2,1 km/h W-SW 9,4 C 14,9 C 11,7 km/h
06.11.2010 02:00 14,5 C 69 % 1019,0 hPa 0,0 l/m 1,3 km/h W 8,9 C 14,5 C 6,8 km/h
06.11.2010 03:00 13,8 C 70 % 1018,3 hPa 0,0 l/m 0,9 km/h W-NW 8,4 C 13,8 C 3,6 km/h
06.11.2010 04:00 12,3 C 74 % 1017,7 hPa 0,0 l/m 0,9 km/h S-SW 7,8 C 12,3 C 6,4 km/h
06.11.2010 05:00 13,3 C 72 % 1017,1 hPa 0,0 l/m 2,2 km/h S 8,3 C 13,3 C 9,7 km/h
06.11.2010 06:00 13,1 C 71 % 1016,8 hPa 0,0 l/m 0,4 km/h N 7,9 C 13,1 C 4,8 km/h
06.11.2010 07:00 13,4 C 72 % 1016,7 hPa 0,0 l/m 3,5 km/h W-SW 8,3 C 13,4 C 14,9 km/h
06.11.2010 08:00 15,7 C 65 % 1016,5 hPa 0,0 l/m 5,2 km/h W-SW 9,1 C 15,5 C 17,3 km/h
06.11.2010 09:00 17,2 C 58 % 1016,0 hPa 0,0 l/m 8,5 km/h W-SW 8,9 C 16,2 C 25,2 km/h
06.11.2010 10:00 17,3 C 56 % 1015,5 hPa 0,0 l/m 11,5 km/h W-SW 8,5 C 15,1 C 33,4 km/h
06.11.2010 11:00 17,8 C 55 % 1014,5 hPa 0,0 l/m 12,6 km/h SW 8,5 C 15,3 C 35,0 km/h
06.11.2010 12:00 18,4 C 51 % 1013,3 hPa 0,0 l/m 13,5 km/h W-SW 8,1 C 15,7 C 35,0 km/h
06.11.2010 13:00 18,8 C 47 % 1012,6 hPa 0,0 l/m 13,2 km/h W-SW 7,2 C 16,2 C 37,0 km/h
06.11.2010 14:00 17,9 C 47 % 1012,3 hPa 0,0 l/m 12,4 km/h W-NW 6,4 C 15,5 C 31,0 km/h
06.11.2010 15:00 17,0 C 51 % 1012,2 hPa 0,0 l/m 9,5 km/h S 6,8 C 15,5 C 28,1 km/h
06.11.2010 16:00 16,1 C 54 % 1011,8 hPa 0,0 l/m 10,1 km/h W-NW 6,8 C 14,4 C 28,6 km/h
06.11.2010 17:00 15,3 C 58 % 1011,7 hPa 0,0 l/m 6,7 km/h SO 7,1 C 14,9 C 22,1 km/h
06.11.2010 18:00 14,9 C 60 % 1011,9 hPa 0,0 l/m 4,7 km/h W-SW 7,1 C 14,9 C 16,5 km/h
06.11.2010 19:00 14,9 C 60 % 1011,2 hPa 0,0 l/m 5,9 km/h SW 7,2 C 14,6 C 19,3 km/h
06.11.2010 20:00 14,9 C 60 % 1010,9 hPa 0,0 l/m 7,6 km/h W 7,3 C 14,2 C 22,5 km/h
06.11.2010 21:00 14,8 C 62 % 1010,7 hPa 0,0 l/m 5,6 km/h W-SW 7,6 C 14,7 C 17,7 km/h
06.11.2010 22:00 14,4 C 63 % 1010,5 hPa 0,0 l/m 1,9 km/h SW 7,5 C 14,4 C 8,8 km/h
06.11.2010 23:00 13,9 C 65 % 1010,1 hPa 0,0 l/m 1,5 km/h W-SW 7,4 C 13,9 C 8,4 km/h
07.11.2010 00:00 13,3 C 66 % 1010,0 hPa 0,0 l/m 0,1 km/h N 7,1 C 13,3 C 1,2 km/h
07.11.2010 01:00 12,3 C 71 % 1009,8 hPa 0,0 l/m 0,0 km/h N 7,3 C 12,3 C 0,4 km/h
07.11.2010 02:00 12,0 C 71 % 1009,3 hPa 0,0 l/m 2,1 km/h NO 6,9 C 12,0 C 7,3 km/h
07.11.2010 03:00 11,5 C 68 % 1008,7 hPa 0,0 l/m 0,0 km/h N 5,9 C 11,5 C 0,4 km/h
07.11.2010 04:00 9,5 C 72 % 1008,2 hPa 0,0 l/m 0,0 km/h N 4,8 C 9,5 C 0,0 km/h
07.11.2010 05:00 7,8 C 77 % 1007,6 hPa 0,0 l/m 0,0 km/h N 4,0 C 7,8 C 0,8 km/h
07.11.2010 06:00 7,3 C 81 % 1006,7 hPa 0,0 l/m 0,0 km/h N 4,1 C 7,3 C 0,0 km/h
07.11.2010 07:00 7,4 C 82 % 1006,3 hPa 0,0 l/m 0,0 km/h N 4,6 C 7,4 C 0,0 km/h
07.11.2010 08:00 7,8 C 83 % 1005,7 hPa 0,0 l/m 0,0 km/h N 5,1 C 7,8 C 0,0 km/h
07.11.2010 09:00 9,3 C 83 % 1004,8 hPa 0,0 l/m 0,6 km/h NO 6,5 C 9,3 C 3,2 km/h
07.11.2010 10:00 10,1 C 82 % 1004,0 hPa 0,0 l/m 0,7 km/h O-SO 7,2 C 10,1 C 6,0 km/h
07.11.2010 11:00 9,8 C 82 % 1002,9 hPa 0,0 l/m 1,1 km/h O 6,9 C 9,8 C 5,6 km/h
07.11.2010 12:00 9,2 C 83 % 1002,0 hPa 0,0 l/m 1,4 km/h O 6,5 C 9,2 C 5,2 km/h
07.11.2010 13:00 9,3 C 83 % 1001,0 hPa 0,0 l/m 0,2 km/h N 6,6 C 9,3 C 2,4 km/h
07.11.2010 14:00 9,7 C 84 % 1000,2 hPa 0,0 l/m 0,1 km/h N 7,0 C 9,7 C 1,6 km/h
07.11.2010 15:00 9,9 C 83 % 999,8 hPa 0,0 l/m 0,0 km/h N 7,2 C 9,9 C 0,0 km/h
07.11.2010 16:00 9,3 C 83 % 999,5 hPa 0,0 l/m 0,0 km/h N 6,6 C 9,3 C 0,0 km/h
07.11.2010 17:00 8,2 C 83 % 999,0 hPa 0,0 l/m 0,0 km/h N 5,5 C 8,2 C 0,0 km/h
07.11.2010 18:00 7,5 C 84 % 998,6 hPa 0,0 l/m 0,0 km/h N 4,9 C 7,5 C 0,4 km/h
07.11.2010 19:00 6,8 C 84 % 997,9 hPa 0,0 l/m 0,0 km/h N 4,3 C 6,8 C 0,0 km/h
07.11.2010 20:00 6,7 C 84 % 996,9 hPa 0,0 l/m 0,0 km/h N 4,2 C 6,7 C 0,0 km/h
07.11.2010 21:00 6,6 C 84 % 996,2 hPa 0,0 l/m 0,0 km/h N 4,0 C 6,6 C 1,2 km/h
07.11.2010 22:00 6,6 C 84 % 995,3 hPa 0,0 l/m 0,0 km/h N 4,1 C 6,6 C 1,2 km/h
07.11.2010 23:00 7,3 C 84 % 994,6 hPa 0,0 l/m 0,0 km/h N 4,7 C 7,3 C 1,2 km/h
Min-Datum _ 07.11.10 05.11.10 07.11.10 - 01.11.10 - 07.11.10 07.11.10 01.11.10
_ Min-Zeit 21:45 14:15 23:45 - 00:00 - 05:45 21:30 21:15
Minimum _ 6,4 C 46 % 994,4 hPa - 0,0 km/h - 3,8 C 6,5 C 0,0 km/h
Max-Datum _ 05.11.10 02.11.10 04.11.10 04.11.10 05.11.10 - 01.11.10 04.11.10 06.11.10
_ Max-Zeit 13:45 05:00 20:15 11:00 11:30 - 14:00 12:45 13:30
Maximum _ 21,1 C 85 % 1025,2 hPa 0,3 l/m 17,0 km/h
W-SW
- 11,1 C 20,9 C 51,5 km/h
W
Durchschnitt _ 12,7 C 73 % 1015,1 hPa #0,3 l/m 2,4 km/h W-SW 7,7 C 12,5 C 8,8 km/h